Time;durP1;ratioP1;P1;durP2;ratioP2;P2;SDS_P1;SDS_P2;PMS_P1;PMS_P2;Temp;Humidity;BMP_temperature;BMP_pressure;BME280_temperature;BME280_humidity;BME280_pressure;Samples;Min_cycle;Max_cycle;Signal;HPM_P1;HPM_P2
2023/05/23 00:01:31;;;;;;;14.27;8.35;;;;;;;;;;8421745;28;20040;-90
2023/05/23 00:05:34;;;;;;;15.07;9.35;;;;;;;;;;8426521;28;20495;-93
2023/05/23 00:09:37;;;;;;;15.82;8.38;;;;;;;;;;8426279;28;20130;-93
2023/05/23 00:13:42;;;;;;;12.80;8.40;;;;;;;;;;8442343;28;20036;-93
2023/05/23 00:17:45;;;;;;;11.63;7.70;;;;;;;;;;8422969;28;20044;-91
2023/05/23 00:21:49;;;;;;;11.68;7.28;;;;;;;;;;8434860;28;20067;-90
2023/05/23 00:25:52;;;;;;;11.07;7.75;;;;;;;;;;8436143;28;20487;-91
2023/05/23 00:29:57;;;;;;;13.75;7.95;;;;;;;;;;8416860;28;20048;-94
2023/05/23 00:34:00;;;;;;;13.10;7.80;;;;;;;;;;8419427;28;20047;-93
2023/05/23 00:38:06;;;;;;;12.52;8.40;;;;;;;;;;8440562;28;20089;-90
2023/05/23 00:42:09;;;;;;;10.65;7.32;;;;;;;;;;8440716;28;20044;-94
2023/05/23 00:46:14;;;;;;;13.27;7.90;;;;;;;;;;8439384;28;20107;-92
2023/05/23 00:50:17;;;;;;;12.48;7.90;;;;;;;;;;8436556;28;20044;-89
2023/05/23 00:54:26;;;;;;;15.32;8.13;;;;;;;;;;8415158;28;20089;-90
2023/05/23 00:58:29;;;;;;;14.55;8.43;;;;;;;;;;8417681;28;20044;-91
2023/05/23 01:02:36;;;;;;;17.45;9.55;;;;;;;;;;8435481;28;20044;-94
2023/05/23 01:06:39;;;;;;;14.82;9.15;;;;;;;;;;8435878;28;20194;-91
2023/05/23 01:10:41;;;;;;;12.70;8.23;;;;;;;;;;8399212;28;20056;-90
2023/05/23 01:14:49;;;;;;;16.88;9.68;;;;;;;;;;8431433;28;20450;-93
2023/05/23 01:18:59;;;;;;;14.75;8.82;;;;;;;;;;8437451;28;20100;-93
2023/05/23 01:23:20;;;;;;;14.40;8.70;;;;;;;;;;8422975;28;20544;-90
2023/05/23 01:27:38;;;;;;;13.55;8.57;;;;;;;;;;8441293;28;20181;-91
2023/05/23 01:31:44;;;;;;;10.90;7.72;;;;;;;;;;8427814;28;20226;-90
2023/05/23 01:35:47;;;;;;;11.48;7.00;;;;;;;;;;8425362;28;20042;-89
2023/05/23 01:39:50;;;;;;;11.98;7.78;;;;;;;;;;8432526;28;20048;-89
2023/05/23 01:43:55;;;;;;;12.75;7.80;;;;;;;;;;8432659;28;20193;-89
2023/05/23 01:47:59;;;;;;;11.70;7.22;;;;;;;;;;8432471;28;20051;-89
2023/05/23 01:52:02;;;;;;;12.70;6.85;;;;;;;;;;8424391;28;20590;-91
2023/05/23 01:56:06;;;;;;;11.00;7.85;;;;;;;;;;8440550;28;20055;-90
2023/05/23 02:00:13;;;;;;;12.10;7.22;;;;;;;;;;8420672;28;20044;-92
2023/05/23 02:04:16;;;;;;;10.98;6.47;;;;;;;;;;8438471;28;20044;-92
2023/05/23 02:08:19;;;;;;;10.30;6.70;;;;;;;;;;8435175;28;20495;-90
2023/05/23 02:12:22;;;;;;;10.75;6.80;;;;;;;;;;8426124;28;20056;-92
2023/05/23 02:16:26;;;;;;;10.93;7.30;;;;;;;;;;8434869;28;20043;-91
2023/05/23 02:20:29;;;;;;;14.43;8.23;;;;;;;;;;8437550;28;20132;-90
2023/05/23 02:24:32;;;;;;;15.25;9.23;;;;;;;;;;8421104;28;20052;-90
2023/05/23 02:28:35;;;;;;;19.77;10.07;;;;;;;;;;8434260;28;20044;-91
2023/05/23 02:32:39;;;;;;;17.08;11.27;;;;;;;;;;8434877;28;20111;-91
2023/05/23 02:36:42;;;;;;;21.90;14.13;;;;;;;;;;8435028;28;20070;-91
2023/05/23 02:40:45;;;;;;;19.90;11.77;;;;;;;;;;8430930;28;20044;-93
2023/05/23 02:44:48;;;;;;;18.80;10.30;;;;;;;;;;8417837;28;20044;-93
2023/05/23 02:48:54;;;;;;;12.18;7.57;;;;;;;;;;8427233;28;20123;-91
2023/05/23 02:52:57;;;;;;;12.57;9.13;;;;;;;;;;8445536;28;20052;-95
2023/05/23 02:57:06;;;;;;;16.15;9.63;;;;;;;;;;8428589;28;20718;-92
2023/05/23 03:01:22;;;;;;;12.55;8.02;;;;;;;;;;8438099;28;20070;-93
2023/05/23 03:05:35;;;;;;;12.95;9.13;;;;;;;;;;8442812;28;20044;-91
2023/05/23 03:09:44;;;;;;;14.27;8.98;;;;;;;;;;8450962;28;20056;-91
2023/05/23 03:13:59;;;;;;;14.85;8.52;;;;;;;;;;8439486;28;20093;-90
2023/05/23 03:18:07;;;;;;;13.20;8.93;;;;;;;;;;8449937;28;20119;-91
2023/05/23 03:22:19;;;;;;;14.65;8.13;;;;;;;;;;8449695;28;20055;-90
2023/05/23 03:26:29;;;;;;;12.88;7.18;;;;;;;;;;8436866;28;20048;-90
2023/05/23 03:31:01;;;;;;;10.00;7.45;;;;;;;;;;8443314;28;20048;-91
2023/05/23 03:35:18;;;;;;;10.68;7.13;;;;;;;;;;8463634;22;20075;-91
2023/05/23 03:40:29;;;;;;;10.23;7.18;;;;;;;;;;8417007;28;20105;-91
2023/05/23 03:45:10;;;;;;;10.10;6.43;;;;;;;;;;8321142;28;20058;-90
2023/05/23 03:59:56;;;;;;;8.50;5.70;;;;;;;;;;8268143;28;20054;-90
2023/05/23 04:05:31;;;;;;;10.98;5.80;;;;;;;;;;8118534;29;20056;-90
2023/05/23 04:45:19;;;;;;;7.13;4.28;;;;;;;;;;8029735;29;20045;-92
2023/05/23 04:50:10;;;;;;;6.85;3.70;;;;;;;;;;8119578;29;20080;-90
2023/05/23 04:55:26;;;;;;;10.55;5.43;;;;;;;;;;8211591;29;20051;-92
2023/05/23 04:59:45;;;;;;;7.60;3.65;;;;;;;;;;8266305;28;20060;-91
2023/05/23 05:03:49;;;;;;;5.97;3.15;;;;;;;;;;8347887;28;20069;-91
2023/05/23 05:07:59;;;;;;;9.82;4.15;;;;;;;;;;8339293;28;20057;-91
2023/05/23 05:12:04;;;;;;;7.07;3.78;;;;;;;;;;8303429;28;20588;-92
2023/05/23 05:16:12;;;;;;;7.60;3.38;;;;;;;;;;8305389;28;20135;-92
2023/05/23 05:20:54;;;;;;;5.47;3.78;;;;;;;;;;8338312;28;20061;-92
2023/05/23 05:25:00;;;;;;;6.82;3.22;;;;;;;;;;8312491;28;20050;-92
2023/05/23 05:29:04;;;;;;;7.32;3.67;;;;;;;;;;8323929;28;20062;-92
2023/05/23 05:33:09;;;;;;;12.75;6.65;;;;;;;;;;8297493;28;20108;-93
2023/05/23 05:37:13;;;;;;;4.78;2.83;;;;;;;;;;8361199;28;20135;-94
2023/05/23 05:41:21;;;;;;;5.47;2.92;;;;;;;;;;8388492;28;20059;-92
2023/05/23 05:45:30;;;;;;;6.00;3.40;;;;;;;;;;8383567;28;20047;-93
2023/05/23 05:49:37;;;;;;;5.20;2.93;;;;;;;;;;8386128;28;20051;-93
2023/05/23 05:53:45;;;;;;;9.13;3.60;;;;;;;;;;8395408;28;20045;-93
2023/05/23 05:57:57;;;;;;;12.35;3.50;;;;;;;;;;8385242;28;20048;-93
2023/05/23 06:02:25;;;;;;;21.88;5.40;;;;;;;;;;8349455;28;20045;-93
2023/05/23 06:07:08;;;;;;;20.17;3.90;;;;;;;;;;8343385;28;20053;-94
2023/05/23 06:11:38;;;;;;;13.45;4.15;;;;;;;;;;8413812;28;20032;-94
2023/05/23 06:15:57;;;;;;;14.47;4.33;;;;;;;;;;8390071;28;20056;-92
2023/05/23 06:20:08;;;;;;;11.47;3.93;;;;;;;;;;8364644;28;20052;-93
2023/05/23 06:24:23;;;;;;;13.80;3.65;;;;;;;;;;8364806;28;20057;-94
2023/05/23 06:28:27;;;;;;;14.57;4.05;;;;;;;;;;8373503;28;20068;-95
2023/05/23 06:32:51;;;;;;;11.95;4.70;;;;;;;;;;8405951;28;20031;-93
2023/05/23 06:37:03;;;;;;;9.82;4.90;;;;;;;;;;8439592;28;20048;-92
2023/05/23 06:41:23;;;;;;;7.53;3.47;;;;;;;;;;8430472;28;20048;-93
2023/05/23 06:45:27;;;;;;;9.68;3.22;;;;;;;;;;8416652;28;20074;-92
2023/05/23 06:49:37;;;;;;;13.32;4.78;;;;;;;;;;8430095;28;20036;-93
2023/05/23 06:54:03;;;;;;;12.18;3.85;;;;;;;;;;8406045;28;20102;-92
2023/05/23 06:58:08;;;;;;;10.45;3.70;;;;;;;;;;8431964;28;20044;-92
2023/05/23 07:02:17;;;;;;;15.50;7.32;;;;;;;;;;8412670;28;20051;-94
2023/05/23 07:06:22;;;;;;;11.15;4.00;;;;;;;;;;8412755;28;20076;-92
2023/05/23 07:10:25;;;;;;;12.57;3.65;;;;;;;;;;8422314;28;20108;-95
2023/05/23 07:14:28;;;;;;;8.73;4.20;;;;;;;;;;8420318;28;20415;-93
2023/05/23 07:18:31;;;;;;;8.93;3.15;;;;;;;;;;8425209;28;20407;-90
2023/05/23 07:22:35;;;;;;;14.30;5.05;;;;;;;;;;8414963;28;20044;-94
2023/05/23 07:26:38;;;;;;;7.85;4.68;;;;;;;;;;8418527;28;20044;-94
2023/05/23 07:30:42;;;;;;;9.25;3.25;;;;;;;;;;8416208;28;20821;-92
2023/05/23 07:34:45;;;;;;;9.95;3.65;;;;;;;;;;8407072;28;20107;-94
2023/05/23 07:38:50;;;;;;;7.38;3.83;;;;;;;;;;8417264;28;20051;-93
2023/05/23 07:42:53;;;;;;;8.02;3.63;;;;;;;;;;8420248;28;20119;-96
2023/05/23 07:46:56;;;;;;;8.75;4.22;;;;;;;;;;8424492;28;20063;-96
2023/05/23 07:50:59;;;;;;;5.35;3.22;;;;;;;;;;8421805;28;20500;-95
2023/05/23 07:55:04;;;;;;;6.68;3.65;;;;;;;;;;8409140;28;20052;-96
2023/05/23 07:59:07;;;;;;;12.77;4.22;;;;;;;;;;8414510;28;20033;-95
2023/05/23 08:03:10;;;;;;;6.45;3.67;;;;;;;;;;8403904;28;20087;-89
2023/05/23 08:07:13;;;;;;;6.20;3.30;;;;;;;;;;8431064;28;20079;-89
2023/05/23 08:11:18;;;;;;;9.32;3.60;;;;;;;;;;8420396;28;20076;-94
2023/05/23 08:15:22;;;;;;;5.88;3.28;;;;;;;;;;8425100;28;20441;-92
2023/05/23 08:19:26;;;;;;;6.90;3.63;;;;;;;;;;8421336;28;20506;-96
2023/05/23 08:23:29;;;;;;;5.78;3.92;;;;;;;;;;8422823;28;20044;-95
2023/05/23 08:27:34;;;;;;;10.73;4.50;;;;;;;;;;8434294;28;20044;-95
2023/05/23 08:31:37;;;;;;;10.70;4.40;;;;;;;;;;8421310;28;20040;-95
2023/05/23 08:35:40;;;;;;;7.50;4.20;;;;;;;;;;8420751;28;20060;-94
2023/05/23 08:39:43;;;;;;;8.20;3.92;;;;;;;;;;8421324;28;20040;-95
2023/05/23 08:43:47;;;;;;;7.80;5.35;;;;;;;;;;8403692;28;20044;-95
2023/05/23 08:47:52;;;;;;;9.57;5.68;;;;;;;;;;8434665;28;20481;-95
2023/05/23 08:51:58;;;;;;;9.52;5.43;;;;;;;;;;8407155;28;20530;-95
2023/05/23 08:56:02;;;;;;;10.55;4.70;;;;;;;;;;8419097;28;20544;-95
2023/05/23 09:00:13;;;;;;;7.95;4.30;;;;;;;;;;8416777;28;20045;-95
2023/05/23 09:04:45;;;;;;;6.72;4.07;;;;;;;;;;8405191;28;20055;-94
2023/05/23 09:09:26;;;;;;;8.95;5.03;;;;;;;;;;8425005;28;20072;-94
2023/05/23 09:13:30;;;;;;;8.55;4.65;;;;;;;;;;8415723;28;20187;-95
2023/05/23 09:17:58;;;;;;;7.40;4.25;;;;;;;;;;8408546;28;20064;-93
2023/05/23 09:22:06;;;;;;;9.00;4.53;;;;;;;;;;8401802;28;20052;-92
2023/05/23 09:26:17;;;;;;;15.23;6.93;;;;;;;;;;8414883;28;21520;-93
2023/05/23 09:30:22;;;;;;;8.13;4.72;;;;;;;;;;8395527;28;20040;-90
2023/05/23 09:34:28;;;;;;;8.45;4.70;;;;;;;;;;8395160;28;20400;-93
2023/05/23 09:38:31;;;;;;;11.32;6.30;;;;;;;;;;8404403;28;20384;-93
2023/05/23 09:42:35;;;;;;;12.13;7.80;;;;;;;;;;8417355;28;20048;-92
2023/05/23 09:46:38;;;;;;;11.05;7.50;;;;;;;;;;8413380;28;20148;-95
2023/05/23 09:50:50;;;;;;;10.52;7.60;;;;;;;;;;8408778;28;20059;-93
2023/05/23 09:54:54;;;;;;;8.90;5.07;;;;;;;;;;8403836;28;20072;-91
2023/05/23 09:59:00;;;;;;;11.27;7.70;;;;;;;;;;8413965;28;20078;-92
2023/05/23 10:03:11;;;;;;;15.68;9.50;;;;;;;;;;8410027;28;20048;-94
2023/05/23 10:07:21;;;;;;;10.50;6.23;;;;;;;;;;8397340;28;20417;-93
2023/05/23 10:11:56;;;;;;;7.88;4.85;;;;;;;;;;8409122;28;20047;-90
2023/05/23 10:16:03;;;;;;;9.52;4.78;;;;;;;;;;8414859;28;20070;-92
2023/05/23 10:20:12;;;;;;;24.13;12.82;;;;;;;;;;8393387;28;20053;-94
2023/05/23 10:24:17;;;;;;;10.57;5.90;;;;;;;;;;8416394;28;20059;-91
2023/05/23 10:28:21;;;;;;;20.05;8.98;;;;;;;;;;8408038;28;20072;-93
2023/05/23 10:32:27;;;;;;;13.45;6.93;;;;;;;;;;8408312;28;20057;-93
2023/05/23 10:36:37;;;;;;;9.18;4.07;;;;;;;;;;8415486;28;20139;-90
2023/05/23 10:40:53;;;;;;;19.43;7.20;;;;;;;;;;8429405;28;20086;-92
2023/05/23 10:45:15;;;;;;;18.40;7.55;;;;;;;;;;8419851;28;20044;-92
2023/05/23 10:49:18;;;;;;;9.90;5.00;;;;;;;;;;8400643;28;20071;-94
2023/05/23 10:53:23;;;;;;;7.80;4.07;;;;;;;;;;8419584;28;20040;-95
2023/05/23 10:57:28;;;;;;;11.63;5.93;;;;;;;;;;8430324;28;20188;-96
2023/05/23 11:01:31;;;;;;;13.02;6.72;;;;;;;;;;8430750;28;20202;-93
2023/05/23 11:05:35;;;;;;;8.60;4.70;;;;;;;;;;8416638;28;20093;-93
2023/05/23 11:10:05;;;;;;;19.63;14.40;;;;;;;;;;8416666;28;20044;-94
2023/05/23 11:14:10;;;;;;;10.40;5.10;;;;;;;;;;8410301;28;20068;-93
2023/05/23 11:18:21;;;;;;;8.68;4.00;;;;;;;;;;8412085;28;20446;-92
2023/05/23 11:22:29;;;;;;;25.42;11.50;;;;;;;;;;8405818;28;20049;-91
2023/05/23 11:26:32;;;;;;;6.38;3.60;;;;;;;;;;8414894;28;20074;-91
2023/05/23 11:30:37;;;;;;;5.20;3.28;;;;;;;;;;8419222;28;20496;-92
2023/05/23 11:34:40;;;;;;;6.05;3.45;;;;;;;;;;8422290;28;20044;-92
2023/05/23 11:38:43;;;;;;;6.18;3.75;;;;;;;;;;8423179;28;20416;-91
2023/05/23 11:42:46;;;;;;;8.80;4.00;;;;;;;;;;8435926;28;20388;-90
2023/05/23 11:47:01;;;;;;;25.10;10.88;;;;;;;;;;8435946;28;20051;-92
2023/05/23 11:51:05;;;;;;;29.88;12.60;;;;;;;;;;8408541;28;20040;-90
2023/05/23 11:55:09;;;;;;;14.20;5.90;;;;;;;;;;8422209;28;20055;-91
2023/05/23 11:59:12;;;;;;;10.38;5.20;;;;;;;;;;8421712;28;20104;-90
2023/05/23 12:03:16;;;;;;;5.93;3.40;;;;;;;;;;8434637;28;20047;-91
2023/05/23 12:07:20;;;;;;;6.07;3.53;;;;;;;;;;8423001;28;20130;-91
2023/05/23 12:11:25;;;;;;;7.13;3.10;;;;;;;;;;8434879;28;20051;-89
2023/05/23 12:15:27;;;;;;;6.55;3.90;;;;;;;;;;8408426;28;20044;-91
2023/05/23 12:19:32;;;;;;;16.52;7.15;;;;;;;;;;8435499;28;20454;-92
2023/05/23 12:23:36;;;;;;;6.13;3.50;;;;;;;;;;8421616;28;20067;-94
2023/05/23 12:27:42;;;;;;;5.75;3.20;;;;;;;;;;8421834;28;20426;-93
2023/05/23 12:31:49;;;;;;;5.55;3.38;;;;;;;;;;8426135;28;20503;-95
2023/05/23 12:35:55;;;;;;;7.50;3.33;;;;;;;;;;8415957;28;20163;-91
2023/05/23 12:39:58;;;;;;;7.95;3.80;;;;;;;;;;8417937;28;20119;-94
2023/05/23 12:44:03;;;;;;;5.05;3.17;;;;;;;;;;8417084;28;20127;-92
2023/05/23 12:48:07;;;;;;;5.47;3.35;;;;;;;;;;8411162;28;20504;-92
2023/05/23 12:52:31;;;;;;;4.47;3.13;;;;;;;;;;8411511;28;20045;-90
2023/05/23 12:56:38;;;;;;;4.45;2.80;;;;;;;;;;8408346;28;20044;-94
2023/05/23 13:00:41;;;;;;;4.60;2.90;;;;;;;;;;8405988;28;20537;-91
2023/05/23 13:04:44;;;;;;;7.53;3.15;;;;;;;;;;8414128;28;20476;-90
2023/05/23 13:08:49;;;;;;;7.20;3.13;;;;;;;;;;8422202;28;20048;-93
2023/05/23 13:12:52;;;;;;;5.90;3.45;;;;;;;;;;8400814;28;20101;-96
2023/05/23 13:16:55;;;;;;;7.13;3.65;;;;;;;;;;8412597;28;20691;-93
2023/05/23 13:20:58;;;;;;;7.75;3.30;;;;;;;;;;8402925;28;20045;-93
2023/05/23 13:25:05;;;;;;;6.45;3.17;;;;;;;;;;8413106;28;20049;-90
2023/05/23 13:29:08;;;;;;;6.95;3.05;;;;;;;;;;8408986;28;20071;-91
2023/05/23 13:33:11;;;;;;;6.65;3.15;;;;;;;;;;8401004;28;20051;-96
2023/05/23 13:37:15;;;;;;;5.43;3.30;;;;;;;;;;8403478;28;20210;-94
2023/05/23 13:41:19;;;;;;;7.00;2.92;;;;;;;;;;8409686;28;20395;-90
2023/05/23 14:16:50;;;;;;;8.73;3.53;;;;;;;;;;10335105;22;1519030;-88
2023/05/23 14:20:56;;;;;;;8.20;3.10;;;;;;;;;;10350094;23;20017;-88
2023/05/23 14:25:04;;;;;;;5.82;3.10;;;;;;;;;;10323161;23;20020;-87
2023/05/23 14:29:25;;;;;;;5.90;3.20;;;;;;;;;;10347286;23;20020;-86
2023/05/23 14:33:30;;;;;;;5.88;2.95;;;;;;;;;;10351325;22;20020;-87
2023/05/23 14:37:33;;;;;;;5.38;3.28;;;;;;;;;;10351729;22;20016;-87
2023/05/23 14:41:36;;;;;;;4.55;3.00;;;;;;;;;;10351472;22;20026;-87
2023/05/23 14:45:39;;;;;;;4.63;2.97;;;;;;;;;;10351921;22;20016;-88
2023/05/23 15:01:53;;;;;;;4.90;3.05;;;;;;;;;;10351175;23;20508;-86
2023/05/23 15:11:48;;;;;;;6.47;3.10;;;;;;;;;;10344860;23;20066;-88
2023/05/23 15:37:57;;;;;;;5.75;3.10;;;;;;;;;;10033972;23;20029;-88
2023/05/23 15:42:00;;;;;;;7.82;4.03;;;;;;;;;;10160981;23;20025;-90
2023/05/23 15:46:04;;;;;;;6.90;3.70;;;;;;;;;;10178048;23;20093;-90
2023/05/23 15:51:00;;;;;;;5.68;2.83;;;;;;;;;;10288055;22;20058;-90
2023/05/23 16:15:52;;;;;;;4.15;2.85;;;;;;;;;;10335365;23;20428;-88
2023/05/23 16:30:35;;;;;;;7.75;3.60;;;;;;;;;;10413761;22;19921;-90
2023/05/23 16:34:39;;;;;;;8.35;4.03;;;;;;;;;;10409558;22;20027;-89
2023/05/23 16:38:43;;;;;;;11.63;6.60;;;;;;;;;;10413740;22;20024;-87
2023/05/23 16:42:46;;;;;;;8.27;3.63;;;;;;;;;;10395687;22;20023;-89
2023/05/23 16:46:49;;;;;;;15.00;7.03;;;;;;;;;;10392375;22;20016;-88
2023/05/23 16:50:57;;;;;;;8.55;3.83;;;;;;;;;;10399810;22;20023;-89
2023/05/23 17:00:04;;;;;;;9.35;6.18;;;;;;;;;;10393026;22;20047;-88
2023/05/23 17:04:07;;;;;;;13.13;7.80;;;;;;;;;;10383598;22;20035;-88
2023/05/23 17:08:41;;;;;;;14.00;6.88;;;;;;;;;;10382651;22;20458;-88
2023/05/23 17:12:47;;;;;;;19.17;10.57;;;;;;;;;;10380196;22;20098;-88
2023/05/23 17:16:52;;;;;;;9.10;5.38;;;;;;;;;;10355889;22;20449;-88
2023/05/23 17:20:56;;;;;;;6.35;3.53;;;;;;;;;;10355596;22;20359;-89
2023/05/23 17:25:02;;;;;;;11.13;3.80;;;;;;;;;;10355559;22;20065;-88
2023/05/23 17:29:08;;;;;;;11.65;5.60;;;;;;;;;;10357116;22;20015;-88
2023/05/23 17:58:15;;;;;;;18.42;7.32;;;;;;;;;;10388209;22;20042;-89
2023/05/23 18:02:21;;;;;;;10.80;5.10;;;;;;;;;;10361424;22;20020;-89
2023/05/23 18:06:27;;;;;;;9.30;5.32;;;;;;;;;;10360642;22;20312;-89
2023/05/23 18:10:33;;;;;;;10.20;4.50;;;;;;;;;;10359684;22;20065;-90
2023/05/23 18:14:43;;;;;;;8.38;4.82;;;;;;;;;;10359888;22;20035;-91
2023/05/23 18:18:48;;;;;;;11.52;5.93;;;;;;;;;;10360487;22;20558;-89
2023/05/23 18:22:54;;;;;;;10.38;4.65;;;;;;;;;;10359543;22;20470;-88
2023/05/23 18:26:59;;;;;;;18.58;4.95;;;;;;;;;;10360226;22;20023;-89
2023/05/23 18:31:06;;;;;;;7.07;4.38;;;;;;;;;;10360375;22;20019;-89
2023/05/23 18:35:12;;;;;;;6.03;4.15;;;;;;;;;;10360360;22;20313;-89
2023/05/23 18:39:17;;;;;;;7.55;4.80;;;;;;;;;;10359599;22;20374;-89
2023/05/23 18:43:23;;;;;;;7.28;4.38;;;;;;;;;;10359777;22;20440;-90
2023/05/23 18:47:39;;;;;;;6.93;4.93;;;;;;;;;;10360108;22;20031;-88
2023/05/23 18:51:46;;;;;;;10.77;5.10;;;;;;;;;;10362082;22;20027;-90
2023/05/23 18:55:52;;;;;;;9.80;5.43;;;;;;;;;;10362757;22;20035;-89
2023/05/23 19:51:16;;;;;;;10.10;6.13;;;;;;;;;;10390151;22;20085;-88
2023/05/23 19:55:21;;;;;;;11.68;6.15;;;;;;;;;;10389531;22;20023;-88
2023/05/23 19:59:25;;;;;;;9.27;6.25;;;;;;;;;;10362859;22;20023;-87
2023/05/23 20:03:28;;;;;;;8.15;5.45;;;;;;;;;;10363040;22;20020;-88
2023/05/23 20:07:35;;;;;;;8.23;5.20;;;;;;;;;;10363933;22;20018;-87
2023/05/23 20:11:41;;;;;;;10.50;6.15;;;;;;;;;;10363290;22;20494;-88
2023/05/23 20:25:53;;;;;;;10.10;5.70;;;;;;;;;;10390217;22;20018;-89
2023/05/23 20:29:56;;;;;;;17.45;6.32;;;;;;;;;;10389220;22;20094;-89
2023/05/23 20:33:59;;;;;;;10.38;6.22;;;;;;;;;;10389096;22;20019;-88
2023/05/23 20:38:02;;;;;;;11.48;6.05;;;;;;;;;;10389908;22;20020;-89
2023/05/23 20:42:09;;;;;;;10.13;6.05;;;;;;;;;;10389243;22;20016;-90
2023/05/23 20:46:13;;;;;;;13.52;5.88;;;;;;;;;;10405845;22;20440;-89
2023/05/23 20:50:17;;;;;;;10.88;6.10;;;;;;;;;;10388596;22;20117;-90
2023/05/23 20:54:23;;;;;;;10.73;6.38;;;;;;;;;;10361700;22;20016;-90
2023/05/23 20:58:28;;;;;;;10.70;5.47;;;;;;;;;;10406456;22;20053;-89
2023/05/23 21:02:31;;;;;;;10.82;6.13;;;;;;;;;;10406594;22;20054;-89
2023/05/23 21:06:35;;;;;;;8.32;6.45;;;;;;;;;;10388403;22;20012;-89
2023/05/23 21:10:40;;;;;;;10.43;6.65;;;;;;;;;;10388531;22;20424;-89
2023/05/23 22:00:03;;;;;;;13.65;7.03;;;;;;;;;;10395264;22;20026;-89
2023/05/23 22:04:17;;;;;;;10.43;7.28;;;;;;;;;;10287089;23;20429;-90
2023/05/23 22:08:21;;;;;;;9.60;7.15;;;;;;;;;;10304020;23;20519;-88
2023/05/23 22:12:27;;;;;;;12.32;6.95;;;;;;;;;;10303537;23;20453;-89
2023/05/23 22:16:33;;;;;;;11.02;7.60;;;;;;;;;;10287093;23;20432;-89
2023/05/23 22:20:38;;;;;;;12.43;8.00;;;;;;;;;;10304129;23;20076;-88
2023/05/23 22:24:42;;;;;;;10.68;7.50;;;;;;;;;;10304291;23;20017;-89
2023/05/23 22:28:45;;;;;;;10.45;7.88;;;;;;;;;;10289838;23;20100;-89
2023/05/23 22:32:49;;;;;;;12.48;8.35;;;;;;;;;;10289530;23;20025;-89
2023/05/23 22:36:59;;;;;;;12.63;8.02;;;;;;;;;;10289873;23;20017;-89
2023/05/23 22:41:05;;;;;;;10.88;7.55;;;;;;;;;;10263152;23;20433;-89
2023/05/23 22:45:12;;;;;;;13.88;8.05;;;;;;;;;;10263116;23;20016;-88
2023/05/23 22:49:20;;;;;;;12.25;8.45;;;;;;;;;;10263723;23;20465;-89
2023/05/23 22:53:28;;;;;;;13.20;8.25;;;;;;;;;;10263761;23;20476;-89
2023/05/23 22:57:33;;;;;;;11.23;7.50;;;;;;;;;;10263293;23;20025;-89
2023/05/23 23:01:39;;;;;;;12.15;8.70;;;;;;;;;;10262194;23;20028;-89
2023/05/23 23:05:45;;;;;;;12.98;7.95;;;;;;;;;;10263438;23;20076;-88
2023/05/23 23:09:55;;;;;;;15.20;9.38;;;;;;;;;;10263320;23;20393;-89
2023/05/23 23:14:01;;;;;;;14.60;8.85;;;;;;;;;;10263264;23;20024;-89
2023/05/23 23:18:07;;;;;;;15.05;9.23;;;;;;;;;;10262551;23;20351;-89
2023/05/23 23:22:13;;;;;;;14.80;8.23;;;;;;;;;;10262955;23;20444;-89
2023/05/23 23:26:22;;;;;;;14.55;9.05;;;;;;;;;;10263132;23;20091;-89
2023/05/23 23:30:27;;;;;;;11.98;8.25;;;;;;;;;;10263199;23;20030;-89
2023/05/23 23:34:34;;;;;;;12.98;8.95;;;;;;;;;;10262551;23;20055;-90
2023/05/23 23:38:40;;;;;;;12.05;8.48;;;;;;;;;;10262084;23;20027;-89
2023/05/23 23:42:49;;;;;;;13.07;8.18;;;;;;;;;;10263242;23;20512;-89
2023/05/23 23:46:55;;;;;;;12.40;8.38;;;;;;;;;;10262864;23;20027;-89
2023/05/23 23:51:01;;;;;;;16.50;9.00;;;;;;;;;;10262118;23;20031;-88
2023/05/23 23:55:08;;;;;;;12.35;8.63;;;;;;;;;;10262316;23;20020;-90
2023/05/23 23:59:16;;;;;;;13.13;8.75;;;;;;;;;;10262564;23;20094;-89
